Hauptseite
METAR-TAF:

METAR-TAF

Flughäfen :

Treviso, Italien

Flughafen Treviso

Breite: 45-39N, Länge: 012-11E, Höhe: 18 m

Beobachtung

Neuester Wetterbericht von vor 40 Minuten, um 00:50 UTC
Wind 9 kt aus Ost
Temperatur 1°C
Luftfeuchtigkeit 59%
Luftdruck 1015 hPa
Sichtweite 10 km oder mehr

METAR: LIPH 250050Z AUTO 08009KT 9999 OVC053/// 01/M06 Q1015

Zeit: 02:30 (01:30 UTC)

Prognose

Neuester Wetterbericht von vor 2 Stunden und 30 Minuten, um 23:00 UTC
Gültige Prognose vom 25 um 00 UTC bis 25 um 24 UTC
Wind 15 kt aus Ost/Nordost
Sichtweite: 8000 m
Aufgelockert bewölkt in der Höhe von 2500 ft

TAF: LIPH 242300Z 2500/2524 07015KT 8000 SCT025

Wetterbeobachtungen und Prognosen von mehr als 4000 Flughäfen (METAR und TAF Bericht).

Die verfügbaren Stationen werden durch gelbe und rote Markierungen auf der Karte dargestellt.

Führen Sie die Maus auf sie, um den Namen der Station zu sehen.

Darauf klicken, um die Beobachtung von Wetterbeobachtungen und Prognosen zu sehen.

Um die Karte zu ändern : klicken Sie auf den grünen Tasten mit einem schwarzen Kreuz Zum Vergrößern, auf den grünen Button mit einem Gedankenstrich zu verkleinern, oder auf die grünen Pfeile für benachbarte Karten.


METAR-TAF: